METAR Data
IDs: Format: Raw Decoded Include TAF

Data at: 0803 UTC 19 Aug 2022

KSEA 190753Z 03003KT 10SM OVC150 25/19 A2988 RMK AO2 SLP119 T02500189 403060200
KSEA 190653Z 00000KT 10SM FEW110 BKN160 26/19 A2988 RMK AO2 SLP119 T02610189
KSEA 190553Z 15006KT 10SM BKN170 27/18 A2989 RMK AO2 SLP123 T02720178 10306 20261 53001
KSEA 190453Z 11005KT 10SM FEW150 BKN200 28/18 A2989 RMK AO2 SLP125 T02830183
KSEA 190353Z 01004KT 10SM FEW150 BKN200 29/18 A2988 RMK AO2 SLP119 T02890178
KSEA 190253Z VRB03KT 10SM FEW150 BKN200 29/17 A2989 RMK AO2 SLP123 T02940172 56009
KSEA 190153Z 17004KT 10SM FEW150 BKN200 29/18 A2989 RMK AO2 SLP126 T02940183
KSEA 190053Z 14005KT 10SM SCT150 BKN220 31/17 A2990 RMK AO2 SLP126 T03060172
KSEA 182353Z 15007KT 110V170 10SM SCT150 BKN220 30/17 A2991 RMK AO2 SLP131 T03000172 10306 20261 58005
KSEA 182253Z 13006KT 10SM BKN160 BKN250 30/17 A2992 RMK AO2 SLP133 T03000167
KSEA 182153Z 18004KT 10SM BKN150 BKN200 28/16 A2993 RMK AO2 SLP137 T02830161
KSEA 182053Z 26004KT 10SM SCT150 BKN200 28/16 A2993 RMK AO2 SLP136 VIRGA T02830161 50000
KSEA 181953Z 29006KT 10SM SCT160 BKN200 BKN250 27/15 A2994 RMK AO2 SLP139 VIRGA SE-S T02720150
KSEA 181853Z 31005KT 10SM SCT160 BKN200 BKN250 28/15 A2993 RMK AO2 SLP136 T02780150
KSEA 181753Z 29008KT 10SM SCT160 BKN200 BKN250 27/16 A2993 RMK AO2 SLP136 T02720156 10283 20200 58004
KSEA 181653Z VRB03KT 10SM BKN160 BKN200 25/16 A2994 RMK AO2 SLP141 VIRGA T02500161
KSEA 181553Z 24003KT 10SM SCT160 BKN200 22/15 A2995 RMK AO2 SLP145 VIRGA T02220150
KSEA 181453Z 32005KT 10SM SCT160 BKN220 20/14 A2994 RMK AO2 SLP141 VIRGA T02000144 53008
KSEA 181353Z 00000KT 10SM SCT160 BKN220 21/14 A2993 RMK AO2 SLP138 VIRGA T02060144
KSEA 181253Z 35004KT 10SM SCT150 OVC200 23/14 A2992 RMK AO2 SLP133 T02280144
KSEA 181153Z 35007KT 10SM BKN150 22/14 A2991 RMK AO2 SLP131 T02170144 10261 20217 56004
KSEA 181053Z 35008KT 10SM BKN160 22/14 A2992 RMK AO2 SLP133 T02220144
KSEA 180953Z 05005KT 10SM BKN180 24/14 A2992 RMK AO2 SLP133 T02440139
KSEA 180853Z 04005KT 10SM BKN200 24/14 A2993 RMK AO2 SLP136 T02440139 50004